createdAt,value
2023-05-08T00:00:12.306Z,11.57
2023-05-08T00:02:44.917Z,11.57
2023-05-08T00:06:24.877Z,11.20
2023-05-08T00:08:53.692Z,11.73
2023-05-08T00:11:35.217Z,11.57
2023-05-08T00:14:05.245Z,11.00
2023-05-08T00:16:35.353Z,11.43
2023-05-08T00:19:07.135Z,12.37
2023-05-08T00:24:21.442Z,11.60
2023-05-08T00:26:50.310Z,10.63
2023-05-08T00:29:19.524Z,12.07
2023-05-08T00:31:50.256Z,11.50
2023-05-08T00:34:18.754Z,12.03
2023-05-08T00:36:49.374Z,12.43
2023-05-08T00:39:19.286Z,12.73
2023-05-08T00:41:55.338Z,11.97
2023-05-08T00:44:34.840Z,12.50
2023-05-08T00:47:04.205Z,12.93
2023-05-08T00:49:39.321Z,12.03
2023-05-08T00:52:10.547Z,12.30
2023-05-08T00:54:44.467Z,11.77
2023-05-08T00:57:22.892Z,13.23
2023-05-08T00:59:55.504Z,12.77
2023-05-08T01:02:25.375Z,12.27
2023-05-08T01:05:06.211Z,11.47
2023-05-08T01:07:34.452Z,11.67
2023-05-08T01:10:05.550Z,12.00
2023-05-08T01:13:09.105Z,13.17
2023-05-08T01:16:21.236Z,11.90
2023-05-08T01:20:09.749Z,12.17
2023-05-08T01:23:33.822Z,12.20
2023-05-08T01:26:56.946Z,12.60
2023-05-08T01:30:29.348Z,11.97
2023-05-08T01:33:03.456Z,12.87
2023-05-08T01:35:51.866Z,13.20
2023-05-08T01:39:15.723Z,12.97
2023-05-08T01:42:07.020Z,13.90
2023-05-08T01:44:52.951Z,14.83
2023-05-08T01:47:32.997Z,13.80
2023-05-08T01:50:36.130Z,13.70
2023-05-08T01:53:38.019Z,13.70
2023-05-08T01:56:19.307Z,14.87
2023-05-08T01:58:50.968Z,14.80
2023-05-08T02:01:28.689Z,13.57
2023-05-08T02:04:19.408Z,15.00
2023-05-08T02:06:52.922Z,15.97
2023-05-08T02:09:28.203Z,15.93
2023-05-08T02:12:02.056Z,14.83
2023-05-08T02:14:32.961Z,15.47
2023-05-08T02:17:11.560Z,15.67
2023-05-08T02:19:52.103Z,15.10
2023-05-08T02:22:32.728Z,15.03
2023-05-08T02:25:03.778Z,15.67
2023-05-08T02:27:39.955Z,16.03
2023-05-08T02:30:09.581Z,14.67
2023-05-08T02:32:49.981Z,15.87
2023-05-08T02:35:22.931Z,16.13
2023-05-08T02:37:57.870Z,16.93
2023-05-08T02:40:28.869Z,15.70
2023-05-08T02:42:59.787Z,16.60
2023-05-08T02:45:50.694Z,16.87
2023-05-08T02:49:06.227Z,16.37
2023-05-08T02:52:08.597Z,15.13
2023-05-08T02:54:48.416Z,16.03
2023-05-08T02:57:44.370Z,16.30
2023-05-08T03:00:26.960Z,17.07
2023-05-08T03:03:34.553Z,15.27
2023-05-08T03:06:17.390Z,15.47
2023-05-08T03:08:51.776Z,15.40
2023-05-08T03:11:28.852Z,15.07
2023-05-08T03:14:02.150Z,14.57
2023-05-08T03:16:37.107Z,15.20
2023-05-08T03:19:15.358Z,15.10
2023-05-08T03:21:58.258Z,15.33
2023-05-08T03:24:34.777Z,15.03
2023-05-08T03:27:05.062Z,15.60
2023-05-08T03:29:42.464Z,15.57
2023-05-08T03:32:14.178Z,15.03
2023-05-08T03:34:44.729Z,15.00
2023-05-08T03:37:14.317Z,15.57
2023-05-08T03:39:44.984Z,15.60
2023-05-08T03:42:24.332Z,16.10
2023-05-08T03:44:56.387Z,16.60
2023-05-08T03:47:27.065Z,16.43
2023-05-08T03:50:03.722Z,16.00
2023-05-08T03:52:33.365Z,17.03
2023-05-08T03:55:14.674Z,16.40
2023-05-08T03:58:16.405Z,16.60
2023-05-08T04:01:45.345Z,16.43
2023-05-08T04:04:28.865Z,16.20
2023-05-08T04:07:46.368Z,17.03
2023-05-08T04:10:35.570Z,16.87
2023-05-08T04:13:21.800Z,17.43
2023-05-08T04:16:15.882Z,17.00
2023-05-08T04:18:48.980Z,16.43
2023-05-08T04:21:26.932Z,18.27
2023-05-08T04:23:58.249Z,18.87
2023-05-08T04:26:30.207Z,17.87
2023-05-08T04:31:43.809Z,18.73
2023-05-08T04:34:14.078Z,18.67
2023-05-08T04:36:47.751Z,18.43
2023-05-08T04:39:16.031Z,19.30
2023-05-08T04:41:43.476Z,19.13
2023-05-08T04:44:16.496Z,19.03
2023-05-08T04:46:44.881Z,19.80
2023-05-08T04:49:17.442Z,19.53
2023-05-08T04:51:46.125Z,19.90
2023-05-08T04:54:23.586Z,19.27
2023-05-08T04:56:50.905Z,19.27
2023-05-08T04:59:26.351Z,19.43
2023-05-08T05:01:56.404Z,19.70
2023-05-08T05:04:26.924Z,20.27
2023-05-08T05:06:54.359Z,20.43
2023-05-08T05:09:22.173Z,19.17
2023-05-08T05:11:50.915Z,19.63
2023-05-08T05:14:20.506Z,20.00
2023-05-08T05:16:50.756Z,20.07
2023-05-08T05:19:29.312Z,20.17
2023-05-08T05:21:59.072Z,22.40
2023-05-08T05:24:30.044Z,21.07
2023-05-08T05:27:00.967Z,21.30
2023-05-08T05:29:33.560Z,20.03
2023-05-08T05:32:02.088Z,21.47
2023-05-08T05:34:36.814Z,20.97
2023-05-08T05:37:07.736Z,22.43
2023-05-08T05:39:37.505Z,21.87
2023-05-08T05:42:06.549Z,20.37
2023-05-08T05:44:44.372Z,21.70
2023-05-08T05:47:13.306Z,21.23
2023-05-08T05:49:47.318Z,20.30
2023-05-08T05:52:16.259Z,21.23
2023-05-08T05:54:48.307Z,20.60
2023-05-08T05:57:17.820Z,21.57
2023-05-08T05:59:45.234Z,21.67
2023-05-08T06:02:19.507Z,22.10
2023-05-08T06:04:50.129Z,22.47
2023-05-08T06:07:18.476Z,22.70
2023-05-08T06:09:48.486Z,21.40
2023-05-08T06:12:21.871Z,21.83
2023-05-08T06:14:56.681Z,23.03
2023-05-08T06:17:24.837Z,21.80
2023-05-08T06:20:04.322Z,22.20
2023-05-08T06:22:33.811Z,22.03
2023-05-08T06:25:08.697Z,21.00
2023-05-08T06:27:41.264Z,22.43
2023-05-08T06:30:17.169Z,22.30
2023-05-08T06:32:46.742Z,22.53
2023-05-08T06:35:21.623Z,22.00
2023-05-08T06:37:52.573Z,23.20
2023-05-08T06:40:29.196Z,21.90
2023-05-08T06:42:56.693Z,22.23
2023-05-08T06:45:27.747Z,20.97
2023-05-08T06:48:01.780Z,20.87
2023-05-08T06:50:32.083Z,20.20
2023-05-08T06:53:08.215Z,20.10
2023-05-08T06:55:46.733Z,19.73
2023-05-08T06:58:21.341Z,21.00
2023-05-08T07:00:51.781Z,21.40
2023-05-08T07:03:21.662Z,19.73
2023-05-08T07:05:49.257Z,21.57
2023-05-08T07:08:18.324Z,20.20
2023-05-08T07:10:47.252Z,19.67
2023-05-08T07:13:15.223Z,20.43
2023-05-08T07:15:45.106Z,19.63
2023-05-08T07:18:16.100Z,20.03
2023-05-08T07:20:48.548Z,18.67
2023-05-08T07:23:19.257Z,19.87
2023-05-08T07:25:49.147Z,19.27
2023-05-08T07:28:16.646Z,19.17
2023-05-08T07:30:55.748Z,19.60
2023-05-08T07:33:24.693Z,19.60
2023-05-08T07:36:02.152Z,19.97
2023-05-08T07:38:32.773Z,18.97
2023-05-08T07:41:04.633Z,19.03
2023-05-08T07:43:33.666Z,19.43
2023-05-08T07:46:12.608Z,20.20
2023-05-08T07:48:43.862Z,21.47
2023-05-08T07:51:14.882Z,19.70
2023-05-08T07:53:48.095Z,19.30
2023-05-08T07:56:26.535Z,19.23
2023-05-08T07:58:55.757Z,20.20
2023-05-08T08:01:32.432Z,19.53
2023-05-08T08:04:03.718Z,20.47
2023-05-08T08:06:36.140Z,20.33
2023-05-08T08:09:15.082Z,20.30
2023-05-08T08:11:46.289Z,20.07
2023-05-08T08:14:16.436Z,19.30
2023-05-08T08:16:45.848Z,21.17
2023-05-08T08:19:18.417Z,20.30
2023-05-08T08:21:50.177Z,21.27
2023-05-08T08:24:20.014Z,20.67
2023-05-08T08:26:49.237Z,21.97
2023-05-08T08:29:18.797Z,21.30
2023-05-08T08:31:52.627Z,19.57
2023-05-08T08:34:22.412Z,20.20
2023-05-08T08:36:50.674Z,20.87
2023-05-08T08:39:19.404Z,19.63
2023-05-08T08:41:50.762Z,19.80
2023-05-08T08:44:19.106Z,20.07
2023-05-08T08:46:57.552Z,21.00
2023-05-08T08:49:45.083Z,19.60
2023-05-08T08:53:00.628Z,20.37
2023-05-08T08:55:48.137Z,20.50
2023-05-08T08:58:53.945Z,20.77
2023-05-08T09:01:32.333Z,20.93
2023-05-08T09:04:04.048Z,20.23
2023-05-08T09:06:39.213Z,20.37
2023-05-08T09:09:08.269Z,20.03
2023-05-08T09:11:42.259Z,21.23
2023-05-08T09:14:19.466Z,19.27
2023-05-08T09:16:49.582Z,19.63
2023-05-08T09:19:24.946Z,20.80
2023-05-08T09:22:06.859Z,19.87
2023-05-08T09:25:12.610Z,20.00
2023-05-08T09:27:47.111Z,19.87
2023-05-08T09:30:24.303Z,19.77
2023-05-08T09:33:03.143Z,19.50
2023-05-08T09:35:40.298Z,19.33
2023-05-08T09:38:07.759Z,19.97
2023-05-08T09:40:37.300Z,20.93
2023-05-08T09:43:17.502Z,20.83
2023-05-08T09:45:54.198Z,20.73
2023-05-08T09:48:43.756Z,21.13
2023-05-08T09:51:12.818Z,22.03
2023-05-08T09:53:41.391Z,21.77
2023-05-08T09:56:15.901Z,23.53
2023-05-08T09:58:56.551Z,22.17
2023-05-08T10:01:41.290Z,22.73
2023-05-08T10:04:12.378Z,24.53
2023-05-08T10:06:43.302Z,22.50
2023-05-08T10:09:49.737Z,22.20
2023-05-08T10:12:32.722Z,22.50
2023-05-08T10:15:10.157Z,23.53
2023-05-08T10:17:51.189Z,23.57
2023-05-08T10:20:23.562Z,25.63
2023-05-08T10:22:56.115Z,24.80
2023-05-08T10:25:32.500Z,24.50
2023-05-08T10:28:29.980Z,26.33
2023-05-08T10:31:05.891Z,25.47
2023-05-08T10:33:41.081Z,25.33
2023-05-08T10:36:13.876Z,26.30
2023-05-08T10:38:43.823Z,26.97
2023-05-08T10:41:16.459Z,24.67
2023-05-08T10:43:45.760Z,25.80
2023-05-08T10:46:46.460Z,25.47
2023-05-08T10:49:52.572Z,25.23
2023-05-08T10:52:43.638Z,24.70
2023-05-08T10:55:34.829Z,24.70
2023-05-08T10:58:50.151Z,26.47
2023-05-08T11:01:27.839Z,24.57
2023-05-08T11:04:05.465Z,26.77
2023-05-08T11:06:52.705Z,24.53
2023-05-08T11:09:31.828Z,25.90
2023-05-08T11:12:29.053Z,24.70
2023-05-08T11:15:13.072Z,25.53
2023-05-08T11:17:48.914Z,24.80
2023-05-08T11:20:52.256Z,24.50
2023-05-08T11:23:31.760Z,23.00
2023-05-08T11:26:06.434Z,23.03
2023-05-08T11:28:57.080Z,23.83
2023-05-08T11:31:24.728Z,23.40
2023-05-08T11:33:53.555Z,24.23
2023-05-08T11:36:23.785Z,21.83
2023-05-08T11:39:17.264Z,23.67
2023-05-08T11:41:51.621Z,23.23
2023-05-08T11:44:37.115Z,22.23
2023-05-08T11:47:10.033Z,23.47
2023-05-08T11:49:42.025Z,22.30
2023-05-08T11:52:19.782Z,22.37
2023-05-08T11:54:55.537Z,22.60
2023-05-08T11:57:34.817Z,22.30
2023-05-08T12:00:12.801Z,21.10
2023-05-08T12:02:50.220Z,21.90
2023-05-08T12:05:34.439Z,20.30
2023-05-08T12:08:01.831Z,20.67
2023-05-08T12:10:29.783Z,19.63
2023-05-08T12:13:01.306Z,22.13
2023-05-08T12:15:39.265Z,20.67
2023-05-08T12:18:09.783Z,20.87
2023-05-08T12:20:45.933Z,20.30
2023-05-08T12:23:15.087Z,21.73
2023-05-08T12:25:42.849Z,20.00
2023-05-08T12:28:16.869Z,21.60
2023-05-08T12:30:45.702Z,21.50
2023-05-08T12:33:15.526Z,20.10
2023-05-08T12:35:45.171Z,20.67
2023-05-08T12:38:17.795Z,21.07
2023-05-08T12:41:08.979Z,19.87
2023-05-08T12:43:39.949Z,21.00
2023-05-08T12:46:15.362Z,21.17
2023-05-08T12:48:44.713Z,20.67
2023-05-08T12:54:01.514Z,20.73
2023-05-08T12:56:38.113Z,20.47
2023-05-08T12:59:12.119Z,19.30
2023-05-08T13:01:43.078Z,19.50
2023-05-08T13:04:12.668Z,21.00
2023-05-08T13:06:43.713Z,19.03
2023-05-08T13:09:23.875Z,20.27
2023-05-08T13:11:52.395Z,20.77
2023-05-08T13:14:19.880Z,18.23
2023-05-08T13:16:51.375Z,19.80
2023-05-08T13:19:22.483Z,20.07
2023-05-08T13:21:57.102Z,19.93
2023-05-08T13:24:34.180Z,19.50
2023-05-08T13:27:03.588Z,20.17
2023-05-08T13:29:33.258Z,19.73
2023-05-08T13:32:09.561Z,18.80
2023-05-08T13:34:50.230Z,19.47
2023-05-08T13:37:21.341Z,19.33
2023-05-08T13:39:50.146Z,19.07
2023-05-08T13:42:19.111Z,18.93
2023-05-08T13:44:50.048Z,19.53
2023-05-08T13:47:21.172Z,18.23
2023-05-08T13:49:53.463Z,18.33
2023-05-08T13:52:44.540Z,18.37
2023-05-08T13:55:15.563Z,19.30
2023-05-08T13:57:45.057Z,18.77
2023-05-08T14:00:19.621Z,18.87
2023-05-08T14:02:52.247Z,18.83
2023-05-08T14:05:25.161Z,18.53
2023-05-08T14:07:54.935Z,17.77
2023-05-08T14:10:23.494Z,18.33
2023-05-08T14:12:52.037Z,17.63
2023-05-08T14:15:29.221Z,18.10
2023-05-08T14:18:07.139Z,16.13
2023-05-08T14:20:37.396Z,17.20
2023-05-08T14:23:04.754Z,16.53
2023-05-08T14:25:33.638Z,16.87
2023-05-08T14:28:02.299Z,17.07
2023-05-08T14:30:31.132Z,16.20
2023-05-08T14:33:01.687Z,16.50
2023-05-08T14:35:33.636Z,16.53
2023-05-08T14:38:10.956Z,16.60
2023-05-08T14:40:40.709Z,17.27
2023-05-08T14:43:10.303Z,17.00
2023-05-08T14:45:41.486Z,16.27
2023-05-08T14:48:09.906Z,17.30
2023-05-08T14:50:39.020Z,17.00
2023-05-08T14:53:08.680Z,16.80
2023-05-08T14:55:38.979Z,17.37
2023-05-08T14:58:16.161Z,18.17
2023-05-08T15:00:52.158Z,17.33
2023-05-08T15:03:21.025Z,17.07
2023-05-08T15:05:51.315Z,17.73
2023-05-08T15:08:21.966Z,17.23
2023-05-08T15:10:50.475Z,17.60
2023-05-08T15:13:19.197Z,17.87
2023-05-08T15:15:50.276Z,17.93
2023-05-08T15:18:17.752Z,18.63
2023-05-08T15:20:48.524Z,20.27
2023-05-08T15:23:19.505Z,19.17
2023-05-08T15:25:54.225Z,18.40
2023-05-08T15:28:26.259Z,18.43
2023-05-08T15:30:54.948Z,18.57
2023-05-08T15:33:33.733Z,17.07
2023-05-08T15:36:03.983Z,19.03
2023-05-08T15:38:37.979Z,18.43
2023-05-08T15:41:07.670Z,17.93
2023-05-08T15:43:38.232Z,18.30
2023-05-08T15:46:07.400Z,19.10
2023-05-08T15:48:38.888Z,19.07
2023-05-08T15:51:06.556Z,18.80
2023-05-08T15:53:35.961Z,19.27
2023-05-08T15:56:10.555Z,20.37
2023-05-08T15:58:46.459Z,18.17
2023-05-08T16:01:17.185Z,18.80
2023-05-08T16:03:52.267Z,17.97
2023-05-08T16:06:26.161Z,19.23
2023-05-08T16:08:54.416Z,18.30
2023-05-08T16:11:22.823Z,19.37
2023-05-08T16:13:51.311Z,18.63
2023-05-08T16:16:23.651Z,19.83
2023-05-08T16:18:59.825Z,18.67
2023-05-08T16:21:30.524Z,18.47
2023-05-08T16:24:06.495Z,19.13
2023-05-08T16:26:45.070Z,18.83
2023-05-08T16:29:23.226Z,19.60
2023-05-08T16:31:53.382Z,18.90
2023-05-08T16:34:22.486Z,18.40
2023-05-08T16:36:53.832Z,19.00
2023-05-08T16:39:24.497Z,18.73
2023-05-08T16:41:54.514Z,20.03
2023-05-08T16:44:32.941Z,18.97
2023-05-08T16:47:05.777Z,17.40
2023-05-08T16:49:34.201Z,19.10
2023-05-08T16:52:04.551Z,20.00
2023-05-08T16:54:47.687Z,17.93
2023-05-08T16:57:18.106Z,19.23
2023-05-08T16:59:47.954Z,19.63
2023-05-08T17:02:22.260Z,17.93
2023-05-08T17:04:51.568Z,18.40
2023-05-08T17:07:21.539Z,16.90
2023-05-08T17:09:54.670Z,17.10
2023-05-08T17:12:24.546Z,18.73
2023-05-08T17:15:01.174Z,18.47
2023-05-08T17:17:37.284Z,17.57
2023-05-08T17:20:06.971Z,18.27
2023-05-08T17:22:39.450Z,18.90
2023-05-08T17:25:10.094Z,18.80
2023-05-08T17:27:46.895Z,19.00
2023-05-08T17:30:20.470Z,18.17
2023-05-08T17:32:52.019Z,18.67
2023-05-08T17:35:24.824Z,17.33
2023-05-08T17:38:00.568Z,17.50
2023-05-08T17:40:31.789Z,17.80
2023-05-08T17:43:03.744Z,18.23
2023-05-08T17:45:45.992Z,17.50
2023-05-08T17:48:14.291Z,18.77
2023-05-08T17:50:43.764Z,18.57
2023-05-08T17:53:12.479Z,18.60
2023-05-08T17:55:42.329Z,19.70
2023-05-08T17:58:13.486Z,33.03
2023-05-08T18:00:45.745Z,23.57
2023-05-08T18:03:15.903Z,20.70
2023-05-08T18:05:43.841Z,22.10
2023-05-08T18:08:16.978Z,19.63
2023-05-08T18:10:47.921Z,22.43
2023-05-08T18:13:19.294Z,20.63
2023-05-08T18:15:50.190Z,20.77
2023-05-08T18:18:26.239Z,19.13
2023-05-08T18:20:57.770Z,20.13
2023-05-08T18:23:29.115Z,20.50
2023-05-08T18:26:00.159Z,20.00
2023-05-08T18:28:32.613Z,20.47
2023-05-08T18:31:04.861Z,20.90
2023-05-08T18:33:41.139Z,22.97
2023-05-08T18:36:14.458Z,20.77
2023-05-08T18:38:43.380Z,21.83
2023-05-08T18:41:20.871Z,22.53
2023-05-08T18:43:49.504Z,22.47
2023-05-08T18:46:20.573Z,22.27
2023-05-08T18:48:50.091Z,22.67
2023-05-08T18:51:28.517Z,21.93
2023-05-08T18:54:05.311Z,22.10
2023-05-08T18:56:41.745Z,21.83
2023-05-08T18:59:10.478Z,22.50
2023-05-08T19:01:59.752Z,21.97
2023-05-08T19:04:28.963Z,22.27
2023-05-08T19:07:06.128Z,21.00
2023-05-08T19:09:35.448Z,22.00
2023-05-08T19:12:04.417Z,22.50
2023-05-08T19:14:37.577Z,20.67
2023-05-08T19:17:06.153Z,20.73
2023-05-08T19:19:37.210Z,21.43
2023-05-08T19:22:09.916Z,22.83
2023-05-08T19:24:40.811Z,20.47
2023-05-08T19:27:26.813Z,21.80
2023-05-08T19:29:56.234Z,23.17
2023-05-08T19:32:25.034Z,22.23
2023-05-08T19:34:52.517Z,20.80
2023-05-08T19:37:21.413Z,22.00
2023-05-08T19:39:52.447Z,20.10
2023-05-08T19:42:23.369Z,18.83
2023-05-08T19:44:53.637Z,19.50
2023-05-08T19:47:32.329Z,21.63
2023-05-08T19:50:03.243Z,22.33
2023-05-08T19:52:51.485Z,19.23
2023-05-08T19:55:24.401Z,20.10
2023-05-08T19:57:52.567Z,19.30
2023-05-08T20:00:29.719Z,19.97
2023-05-08T20:03:07.681Z,19.53
2023-05-08T20:05:36.598Z,19.10
2023-05-08T20:08:08.625Z,17.40
2023-05-08T20:10:38.043Z,15.27
2023-05-08T20:13:15.032Z,14.93
2023-05-08T20:15:43.882Z,12.80
2023-05-08T20:18:20.960Z,14.67
2023-05-08T20:20:52.577Z,11.30
2023-05-08T20:23:21.071Z,12.53
2023-05-08T20:25:52.575Z,12.00
2023-05-08T20:28:29.064Z,12.37
2023-05-08T20:31:04.498Z,10.33
2023-05-08T20:33:34.410Z,9.30
2023-05-08T20:36:11.453Z,10.30
2023-05-08T20:38:45.916Z,9.80
2023-05-08T20:41:21.969Z,9.83
2023-05-08T20:43:53.160Z,9.63
2023-05-08T20:46:22.082Z,10.00
2023-05-08T20:48:52.676Z,8.83
2023-05-08T20:51:22.878Z,9.57
2023-05-08T20:53:51.504Z,9.03
2023-05-08T20:56:20.099Z,8.70
2023-05-08T20:58:49.901Z,9.63
2023-05-08T21:01:20.717Z,9.10
2023-05-08T21:03:52.320Z,9.03
2023-05-08T21:06:20.859Z,10.77
2023-05-08T21:08:50.487Z,11.40
2023-05-08T21:11:19.574Z,11.77
2023-05-08T21:13:48.678Z,11.93
2023-05-08T21:16:18.450Z,11.97
2023-05-08T21:18:56.681Z,11.87
2023-05-08T21:21:29.365Z,10.10
2023-05-08T21:23:56.684Z,10.17
2023-05-08T21:26:29.248Z,10.03
2023-05-08T21:29:00.071Z,10.13
2023-05-08T21:31:30.035Z,11.47
2023-05-08T21:33:58.810Z,11.13
2023-05-08T21:36:29.835Z,12.60
2023-05-08T21:38:58.321Z,12.90
2023-05-08T21:41:29.462Z,13.33
2023-05-08T21:44:06.166Z,12.13
2023-05-08T21:46:36.592Z,11.90
2023-05-08T21:49:05.623Z,12.33
2023-05-08T21:51:44.902Z,11.30
2023-05-08T21:54:14.778Z,11.37
2023-05-08T21:56:45.742Z,11.43
2023-05-08T21:59:15.023Z,11.93
2023-05-08T22:01:45.275Z,12.03
2023-05-08T22:04:14.860Z,12.47
2023-05-08T22:06:48.659Z,11.80
2023-05-08T22:09:17.592Z,12.67
2023-05-08T22:11:46.242Z,13.23
2023-05-08T22:14:14.799Z,12.10
2023-05-08T22:16:55.238Z,14.30
2023-05-08T22:19:24.736Z,14.30
2023-05-08T22:22:03.514Z,15.17
2023-05-08T22:24:32.446Z,14.93
2023-05-08T22:27:02.443Z,14.93
2023-05-08T22:29:34.441Z,14.93
2023-05-08T22:32:05.104Z,14.90
2023-05-08T22:34:41.981Z,14.87
2023-05-08T22:37:13.068Z,15.83
2023-05-08T22:39:43.526Z,14.50
2023-05-08T22:42:14.148Z,14.37
2023-05-08T22:44:46.238Z,14.30
2023-05-08T22:47:14.912Z,15.23
2023-05-08T22:49:44.598Z,14.30
2023-05-08T22:52:14.126Z,14.10
2023-05-08T22:54:44.319Z,13.53
2023-05-08T23:00:00.403Z,13.30
2023-05-08T23:02:34.918Z,14.07
2023-05-08T23:05:07.534Z,14.17
2023-05-08T23:07:43.296Z,14.07
2023-05-08T23:10:18.049Z,14.67
2023-05-08T23:12:45.494Z,14.57
2023-05-08T23:15:16.564Z,15.03
2023-05-08T23:17:47.013Z,15.30
2023-05-08T23:20:17.195Z,15.50
2023-05-08T23:22:48.397Z,15.03
2023-05-08T23:25:29.062Z,14.73
2023-05-08T23:28:07.536Z,15.40
2023-05-08T23:30:36.648Z,15.83
2023-05-08T23:33:12.366Z,15.27
2023-05-08T23:35:41.414Z,15.97
2023-05-08T23:38:11.897Z,15.53
2023-05-08T23:40:41.315Z,15.47
2023-05-08T23:43:11.808Z,16.10
2023-05-08T23:45:44.168Z,14.50
2023-05-08T23:48:19.924Z,14.67
2023-05-08T23:50:48.913Z,14.37
2023-05-08T23:53:19.803Z,14.33
2023-05-08T23:55:54.015Z,13.90
2023-05-08T23:58:25.230Z,14.60
